createdAt,value
2019-03-18T00:03:39.483Z,9.00
2019-03-18T00:08:41.156Z,8.75
2019-03-18T00:13:42.800Z,8.68
2019-03-18T00:18:44.356Z,8.64
2019-03-18T00:23:46.051Z,8.63
2019-03-18T00:28:47.747Z,8.60
2019-03-18T00:33:49.300Z,8.49
2019-03-18T00:38:50.857Z,8.37
2019-03-18T00:43:52.559Z,8.23
2019-03-18T00:48:54.623Z,8.15
2019-03-18T00:53:56.322Z,8.12
2019-03-18T00:58:57.895Z,8.06
2019-03-18T01:03:59.548Z,7.99
2019-03-18T01:09:01.476Z,7.95
2019-03-18T01:14:04.653Z,7.94
2019-03-18T01:19:06.284Z,7.86
2019-03-18T01:24:07.857Z,7.80
2019-03-18T01:29:09.414Z,7.47
2019-03-18T01:34:10.979Z,7.22
2019-03-18T01:39:12.552Z,6.93
2019-03-18T01:44:14.159Z,6.57
2019-03-18T01:49:16.016Z,6.39
2019-03-18T01:54:17.639Z,6.23
2019-03-18T01:59:19.178Z,6.17
2019-03-18T02:04:20.836Z,5.93
2019-03-18T02:09:22.383Z,5.87
2019-03-18T02:14:24.045Z,5.71
2019-03-18T02:19:27.505Z,5.63
2019-03-18T02:24:29.356Z,5.49
2019-03-18T02:29:30.948Z,5.42
2019-03-18T02:34:33.600Z,5.36
2019-03-18T02:39:35.151Z,5.37
2019-03-18T02:44:36.780Z,5.37
2019-03-18T02:49:38.291Z,5.35
2019-03-18T02:54:39.933Z,5.45
2019-03-18T02:59:41.509Z,5.52
2019-03-18T03:04:43.097Z,5.39
2019-03-18T03:09:44.649Z,5.39
2019-03-18T03:14:46.235Z,5.34
2019-03-18T03:19:47.782Z,5.40
2019-03-18T03:24:51.392Z,5.44
2019-03-18T03:29:52.988Z,5.37
2019-03-18T03:34:54.728Z,5.29
2019-03-18T03:39:56.273Z,5.25
2019-03-18T03:44:57.863Z,5.25
2019-03-18T03:49:59.409Z,5.34
2019-03-18T03:55:01.153Z,5.36
2019-03-18T04:00:15.637Z,5.36
2019-03-18T04:05:17.180Z,5.34
2019-03-18T04:10:18.723Z,5.32
2019-03-18T04:15:20.433Z,5.22
2019-03-18T04:20:21.976Z,5.26
2019-03-18T04:25:23.571Z,5.21
2019-03-18T04:30:25.178Z,5.12
2019-03-18T04:35:26.812Z,5.13
2019-03-18T04:40:28.541Z,5.09
2019-03-18T04:45:30.096Z,5.11
2019-03-18T04:50:31.761Z,4.94
2019-03-18T04:55:33.314Z,4.86
2019-03-18T05:00:34.915Z,4.85
2019-03-18T05:05:36.471Z,4.81
2019-03-18T05:10:38.018Z,4.78
2019-03-18T05:15:39.607Z,4.76
2019-03-18T05:20:41.577Z,4.74
2019-03-18T05:25:43.180Z,4.80
2019-03-18T05:30:44.740Z,4.78
2019-03-18T05:35:46.330Z,4.89
2019-03-18T05:40:47.959Z,5.03
2019-03-18T05:45:49.512Z,5.03
2019-03-18T05:50:51.066Z,5.02
2019-03-18T05:55:52.728Z,5.04
2019-03-18T06:00:54.286Z,5.05
2019-03-18T06:05:55.836Z,5.09
2019-03-18T06:10:57.468Z,5.12
2019-03-18T06:15:59.052Z,5.22
2019-03-18T06:21:00.604Z,5.26
2019-03-18T06:26:02.312Z,5.36
2019-03-18T06:31:03.989Z,5.44
2019-03-18T06:36:05.536Z,5.56
2019-03-18T06:41:07.162Z,5.69
2019-03-18T06:46:08.719Z,5.85
2019-03-18T06:51:10.276Z,6.06
2019-03-18T06:56:11.864Z,6.19
2019-03-18T07:01:13.412Z,6.22
2019-03-18T07:06:14.968Z,6.17
2019-03-18T07:11:16.584Z,6.11
2019-03-18T07:16:18.211Z,6.16
2019-03-18T07:21:19.889Z,6.19
2019-03-18T07:26:21.447Z,6.21
2019-03-18T07:31:23.047Z,6.26
2019-03-18T07:36:24.604Z,6.31
2019-03-18T07:41:26.227Z,6.29
2019-03-18T07:46:27.821Z,6.30
2019-03-18T07:51:29.363Z,6.32
2019-03-18T07:56:30.984Z,6.40
2019-03-18T08:01:32.536Z,6.21
2019-03-18T08:06:34.166Z,6.02
2019-03-18T08:11:36.365Z,6.00
2019-03-18T08:16:37.927Z,5.97
2019-03-18T08:21:39.519Z,5.96
2019-03-18T08:26:41.115Z,5.90
2019-03-18T08:31:42.672Z,5.93
2019-03-18T08:36:44.557Z,5.94
2019-03-18T08:41:46.219Z,6.03
2019-03-18T08:46:47.986Z,6.08
2019-03-18T08:51:49.531Z,6.15
2019-03-18T08:56:51.245Z,6.38
2019-03-18T09:01:52.796Z,6.50
2019-03-18T09:06:54.397Z,6.74
2019-03-18T09:11:55.959Z,6.87
2019-03-18T09:16:57.527Z,6.92
2019-03-18T09:21:59.070Z,6.97
2019-03-18T09:27:02.628Z,6.91
2019-03-18T09:32:04.254Z,6.77
2019-03-18T09:37:05.811Z,6.69
2019-03-18T09:42:07.744Z,6.77
2019-03-18T09:47:09.585Z,6.72
2019-03-18T09:52:11.187Z,6.67
2019-03-18T09:57:31.397Z,6.64
2019-03-18T10:02:33.454Z,6.66
2019-03-18T10:07:35.008Z,6.69
2019-03-18T10:12:36.615Z,6.76
2019-03-18T10:17:39.287Z,6.80
2019-03-18T10:22:40.956Z,6.85
2019-03-18T10:27:42.558Z,6.83
2019-03-18T10:32:44.108Z,6.83
2019-03-18T10:37:45.718Z,6.92
2019-03-18T10:42:47.389Z,7.02
2019-03-18T10:47:48.943Z,7.22
2019-03-18T10:52:50.522Z,7.25
2019-03-18T10:57:52.050Z,7.28
2019-03-18T11:02:53.779Z,7.37
2019-03-18T11:07:55.342Z,7.54
2019-03-18T11:12:56.924Z,7.77
2019-03-18T11:17:58.467Z,7.95
2019-03-18T11:23:00.023Z,8.04
2019-03-18T11:28:01.626Z,8.19
2019-03-18T11:33:03.574Z,8.22
2019-03-18T11:38:05.223Z,8.19
2019-03-18T11:43:06.849Z,8.18
2019-03-18T11:48:08.407Z,8.17
2019-03-18T11:53:14.481Z,8.01
2019-03-18T11:58:13.735Z,7.85
2019-03-18T12:03:15.291Z,7.98
2019-03-18T12:08:16.924Z,8.01
2019-03-18T12:13:18.482Z,8.08
2019-03-18T12:18:20.379Z,8.24
2019-03-18T12:23:21.973Z,8.36
2019-03-18T12:28:23.722Z,8.39
2019-03-18T12:33:25.273Z,8.44
2019-03-18T12:38:26.880Z,8.36
2019-03-18T12:43:28.619Z,8.31
2019-03-18T12:48:30.279Z,8.40
2019-03-18T12:53:32.055Z,8.34
2019-03-18T12:58:33.650Z,8.34
2019-03-18T13:03:35.440Z,8.37
2019-03-18T13:08:37.261Z,8.36
2019-03-18T13:13:38.908Z,8.22
2019-03-18T13:18:40.732Z,8.21
2019-03-18T13:23:42.295Z,8.25
2019-03-18T13:28:43.946Z,8.32
2019-03-18T13:33:45.548Z,8.36
2019-03-18T13:38:47.144Z,8.40
2019-03-18T13:43:48.767Z,8.38
2019-03-18T13:48:50.640Z,8.49
2019-03-18T13:53:52.194Z,8.53
2019-03-18T13:58:53.807Z,8.71
2019-03-18T14:03:55.367Z,8.70
2019-03-18T14:08:56.972Z,8.68
2019-03-18T14:13:58.760Z,8.51
2019-03-18T14:19:00.308Z,8.57
2019-03-18T14:24:01.967Z,8.59
2019-03-18T14:29:03.623Z,8.40
2019-03-18T14:34:05.497Z,8.40
2019-03-18T14:39:07.152Z,8.39
2019-03-18T14:44:08.830Z,8.44
2019-03-18T14:49:10.389Z,8.46
2019-03-18T14:54:11.966Z,8.32
2019-03-18T14:59:13.520Z,8.31
2019-03-18T15:04:15.088Z,8.22
2019-03-18T15:09:17.787Z,8.10
2019-03-18T15:14:19.370Z,8.03
2019-03-18T15:19:20.934Z,7.97
2019-03-18T15:24:22.488Z,7.93
2019-03-18T15:29:24.041Z,7.88
2019-03-18T15:34:25.619Z,7.77
2019-03-18T15:39:27.312Z,7.68
2019-03-18T15:44:28.969Z,7.55
2019-03-18T15:49:31.601Z,7.52
2019-03-18T15:54:33.576Z,7.44
2019-03-18T15:59:35.199Z,7.33
2019-03-18T16:04:36.808Z,7.28
2019-03-18T16:09:38.417Z,7.23
2019-03-18T16:14:39.985Z,7.21
2019-03-18T16:19:41.557Z,7.11
2019-03-18T16:24:43.155Z,7.03
2019-03-18T16:29:44.716Z,6.99
2019-03-18T16:34:46.264Z,6.86
2019-03-18T16:39:47.860Z,6.76
2019-03-18T16:44:49.516Z,6.68
2019-03-18T16:49:51.074Z,6.58
2019-03-18T16:54:52.652Z,6.47
2019-03-18T16:59:54.221Z,6.39
2019-03-18T17:04:55.789Z,6.30
2019-03-18T17:09:57.398Z,6.21
2019-03-18T17:14:58.976Z,6.10
2019-03-18T17:20:00.538Z,5.98
2019-03-18T17:25:11.241Z,5.92
2019-03-18T17:30:16.643Z,5.85
2019-03-18T17:35:18.427Z,5.76
2019-03-18T17:40:20.113Z,5.70
2019-03-18T17:45:21.905Z,5.69
2019-03-18T17:50:28.418Z,5.62
2019-03-18T17:55:30.007Z,5.61
2019-03-18T18:00:39.634Z,5.56
2019-03-18T18:05:41.391Z,5.47
2019-03-18T18:10:42.950Z,5.43
2019-03-18T18:15:44.510Z,5.37
2019-03-18T18:20:46.134Z,5.33
2019-03-18T18:25:47.744Z,5.28
2019-03-18T18:30:51.733Z,5.29
2019-03-18T18:35:53.807Z,5.21
2019-03-18T18:40:55.366Z,5.19
2019-03-18T18:45:56.972Z,5.21
2019-03-18T18:50:58.529Z,5.19
2019-03-18T18:56:00.129Z,5.20
2019-03-18T19:01:01.694Z,5.18
2019-03-18T19:06:03.711Z,5.20
2019-03-18T19:11:05.595Z,5.19
2019-03-18T19:16:08.265Z,5.21
2019-03-18T19:21:09.816Z,5.18
2019-03-18T19:26:11.432Z,5.16
2019-03-18T19:31:13.003Z,5.09
2019-03-18T19:36:14.880Z,5.01
2019-03-18T19:41:16.451Z,4.98
2019-03-18T19:46:18.176Z,4.97
2019-03-18T19:51:19.770Z,4.95
2019-03-18T19:56:21.374Z,4.92
2019-03-18T20:01:22.988Z,4.89
2019-03-18T20:06:24.543Z,4.88
2019-03-18T20:11:26.097Z,4.83
2019-03-18T20:16:27.668Z,4.77
2019-03-18T20:21:29.224Z,4.70
2019-03-18T20:26:30.904Z,4.66
2019-03-18T20:31:32.530Z,4.58
2019-03-18T20:36:35.192Z,4.50
2019-03-18T20:41:36.886Z,4.44
2019-03-18T20:46:38.591Z,4.41
2019-03-18T20:51:40.251Z,4.41
2019-03-18T20:56:42.017Z,4.34
2019-03-18T21:01:43.677Z,4.31
2019-03-18T21:06:45.332Z,4.24
2019-03-18T21:11:47.049Z,4.17
2019-03-18T21:16:48.708Z,4.13
2019-03-18T21:21:50.271Z,4.05
2019-03-18T21:26:51.829Z,4.03
2019-03-18T21:31:53.414Z,3.99
2019-03-18T21:36:58.940Z,3.97
2019-03-18T21:42:00.853Z,3.89
2019-03-18T21:47:02.967Z,3.84
2019-03-18T21:52:04.630Z,3.81
2019-03-18T21:57:06.289Z,3.81
2019-03-18T22:02:08.045Z,3.77
2019-03-18T22:07:09.725Z,3.74
2019-03-18T22:12:11.325Z,3.76
2019-03-18T22:17:12.876Z,3.72
2019-03-18T22:22:14.469Z,3.71
2019-03-18T22:27:16.327Z,3.72
2019-03-18T22:32:17.963Z,3.72
2019-03-18T22:37:19.520Z,3.61
2019-03-18T22:42:21.069Z,3.58
2019-03-18T22:47:22.734Z,3.53
2019-03-18T22:52:24.283Z,3.50
2019-03-18T22:57:25.931Z,3.46
2019-03-18T23:02:27.584Z,3.43
2019-03-18T23:07:29.139Z,3.42
2019-03-18T23:12:30.722Z,3.40
2019-03-18T23:17:32.295Z,3.39
2019-03-18T23:22:33.953Z,3.33
2019-03-18T23:27:35.549Z,3.27
2019-03-18T23:32:37.143Z,3.26
2019-03-18T23:37:38.915Z,3.27
2019-03-18T23:42:40.509Z,3.29
2019-03-18T23:47:42.172Z,3.31
2019-03-18T23:52:43.727Z,3.32
2019-03-18T23:57:45.287Z,3.31
